Terminal Aerodrome Forecast
Issued by NWS

Current Version | Previous Version | Text Only | Print | Product List | Glossary On
Versions: 1 2 3 4 5 6 7 8 9 10 11 12 13 14 15 16 17
000
FTUS44 KBMX 210700 AAA
TAFTOI
TAF AMD
KTOI 210701Z 2107/2206 00000KT 5SM BR SCT250
     FM211230 VRB04KT P6SM SCT250
     FM211500 30006KT P6SM SCT040=

USA.gov is the U.S. government's official web portal to all federal, state and local government web resources and services.